SBOSBO GIG / SBGL
Speedbird OnlineSpeedbird Online GIG / SBGL

Rio Galeão – Tom Jobim International Airport
22:26 24°C

Location Rio De Janeiro, Brazil
Latitude: -22.8099994659
Longitude: -43.2505569458
Web Wikipedia
Altitude 9 Meter / 28 Feet
Distance 9,283 KM / 5,768 Miles
from London.
Time Zone UTC -3 hours (America/Sao_Paulo)
Codes IATA: GIG
ICAO: SBGL
Currency £1 equals BRL 6.03
Runways
RunwayLength (m)Surface
104000Concrete
153180Asphalt
284000Concrete
333180Asphalt
Radio
TypeDescriptionFrequency
APPRIO APP119.35
ATISATIS127.6
CLDCLNC DEL121
GNDGND121.65
OPSOPS122.5
TWRTWR118
Live ATC
METAR SBGL 260100Z 13011KT 9999 OVC021 24/21 Q1013
TAF TAF SBGL 252145Z 2600/2706 11007KT 8000 SCT017 BKN030 TN23/2608Z TX28/2616Z PROB40 TEMPO 2602/2609 08007KT 4000 DZ BR BKN010 OVC025 BECMG 2609/2611 05005KT SCT020 BECMG 2614/2616 13015KT 9999 FEW035 BECMG 2621/2623 31007KT SCT030 BECMG 2702/2704 34005KT CAVOK RMK PGB
Weather As Of 25 Sep 2023 22:26
Description Overcast clouds
Wind 20 km/h from South-East (130°)
Cloud Cover 100%
Precipitation Rain: none, Snow: none
Sunrise 05:39
Sunset 17:49
Lounges American Airlines Admirals Club, Terminal 2
Rotations During the last 90 days there were
57 flights from LHR
57 flights to LHR



Support Speedbird Online

© 2017-2023 Speedbird Online